createdAt,value
2022-12-19T00:01:58.987Z,97.90
2022-12-19T00:04:26.920Z,98.30
2022-12-19T00:06:54.913Z,98.50
2022-12-19T00:09:22.766Z,98.20
2022-12-19T00:11:50.690Z,98.20
2022-12-19T00:14:19.001Z,98.50
2022-12-19T00:16:47.307Z,99.00
2022-12-19T00:19:16.683Z,99.50
2022-12-19T00:21:44.574Z,99.80
2022-12-19T00:24:21.451Z,99.90
2022-12-19T00:26:50.032Z,99.80
2022-12-19T00:29:18.139Z,99.60
2022-12-19T00:31:46.081Z,99.20
2022-12-19T00:34:13.911Z,98.40
2022-12-19T00:36:43.460Z,97.60
2022-12-19T00:39:11.786Z,97.40
2022-12-19T00:41:42.026Z,97.60
2022-12-19T00:44:12.800Z,97.80
2022-12-19T00:46:42.059Z,97.70
2022-12-19T00:49:11.268Z,97.40
2022-12-19T00:51:39.184Z,96.90
2022-12-19T00:54:08.484Z,96.50
2022-12-19T00:56:37.865Z,96.50
2022-12-19T00:59:06.680Z,96.50
2022-12-19T01:01:37.161Z,96.90
2022-12-19T01:06:54.409Z,97.10
2022-12-19T01:09:27.322Z,97.30
2022-12-19T01:12:12.570Z,97.90
2022-12-19T01:14:40.404Z,98.40
2022-12-19T01:17:08.223Z,97.50
2022-12-19T01:19:41.940Z,97.90
2022-12-19T01:22:11.762Z,97.10
2022-12-19T01:24:41.308Z,97.60
2022-12-19T01:27:09.286Z,98.20
2022-12-19T01:29:49.104Z,98.00
2022-12-19T01:32:21.330Z,97.80
2022-12-19T01:34:49.239Z,98.70
2022-12-19T01:37:17.244Z,99.20
2022-12-19T01:39:46.683Z,99.00
2022-12-19T01:42:19.639Z,99.40
2022-12-19T01:45:34.490Z,98.70
2022-12-19T01:48:12.454Z,98.50
2022-12-19T01:50:56.259Z,98.90
2022-12-19T01:53:34.461Z,99.60
2022-12-19T01:56:08.360Z,99.90
2022-12-19T01:58:36.748Z,99.90
2022-12-19T02:01:04.670Z,99.90
2022-12-19T02:03:35.336Z,99.90
2022-12-19T02:06:05.611Z,99.90
2022-12-19T02:08:33.818Z,99.90
2022-12-19T02:11:04.148Z,99.90
2022-12-19T02:13:32.303Z,99.60
2022-12-19T02:16:10.759Z,99.30
2022-12-19T02:18:47.302Z,99.60
2022-12-19T02:21:38.474Z,99.90
2022-12-19T02:24:45.693Z,99.90
2022-12-19T02:28:04.802Z,99.90
2022-12-19T02:30:50.591Z,99.90
2022-12-19T02:33:25.543Z,99.90
2022-12-19T02:35:56.772Z,99.90
2022-12-19T02:38:31.199Z,99.90
2022-12-19T02:41:04.810Z,99.90
2022-12-19T02:43:36.751Z,99.90
2022-12-19T02:46:08.235Z,99.90
2022-12-19T02:48:36.620Z,99.90
2022-12-19T02:51:04.633Z,99.50
2022-12-19T02:53:34.471Z,99.50
2022-12-19T02:56:27.736Z,99.30
2022-12-19T02:59:12.045Z,99.90
2022-12-19T03:01:47.550Z,99.90
2022-12-19T03:04:25.314Z,99.90
2022-12-19T03:06:59.829Z,99.90
2022-12-19T03:09:34.432Z,99.90
2022-12-19T03:12:07.568Z,99.90
2022-12-19T03:14:36.716Z,99.90
2022-12-19T03:17:08.371Z,99.90
2022-12-19T03:19:39.642Z,99.90
2022-12-19T03:22:08.560Z,99.90
2022-12-19T03:24:36.602Z,99.90
2022-12-19T03:27:10.043Z,99.90
2022-12-19T03:29:41.776Z,99.90
2022-12-19T03:32:14.888Z,99.90
2022-12-19T03:34:48.173Z,99.90
2022-12-19T03:37:19.481Z,99.90
2022-12-19T03:39:50.438Z,99.90
2022-12-19T03:42:37.030Z,99.90
2022-12-19T03:45:07.594Z,99.90
2022-12-19T03:47:42.832Z,99.90
2022-12-19T03:50:11.699Z,99.90
2022-12-19T03:52:46.981Z,99.90
2022-12-19T03:55:20.076Z,99.90
2022-12-19T03:57:54.040Z,99.90
2022-12-19T04:00:24.768Z,99.90
2022-12-19T04:02:57.193Z,99.90
2022-12-19T04:05:27.975Z,99.90
2022-12-19T04:08:00.865Z,99.90
2022-12-19T04:10:29.880Z,99.90
2022-12-19T04:13:03.758Z,99.90
2022-12-19T04:15:35.979Z,99.90
2022-12-19T04:18:08.229Z,99.90
2022-12-19T04:20:39.862Z,99.90
2022-12-19T04:23:12.828Z,99.90
2022-12-19T04:25:44.420Z,99.90
2022-12-19T04:28:19.750Z,99.90
2022-12-19T04:30:49.636Z,99.90
2022-12-19T04:33:18.889Z,99.90
2022-12-19T04:35:46.793Z,99.90
2022-12-19T04:38:14.978Z,99.90
2022-12-19T04:40:42.905Z,99.90
2022-12-19T04:43:10.903Z,99.90
2022-12-19T04:45:38.843Z,99.90
2022-12-19T04:48:08.177Z,99.90
2022-12-19T04:50:38.132Z,99.90
2022-12-19T04:53:06.105Z,99.90
2022-12-19T04:55:33.971Z,99.90
2022-12-19T04:58:01.763Z,99.90
2022-12-19T05:00:29.617Z,99.90
2022-12-19T05:02:57.547Z,99.90
2022-12-19T05:05:26.028Z,99.90
2022-12-19T05:07:56.020Z,99.90
2022-12-19T05:10:23.826Z,99.90
2022-12-19T05:12:51.656Z,99.90
2022-12-19T05:15:19.660Z,99.90
2022-12-19T05:17:47.503Z,99.90
2022-12-19T05:20:15.520Z,99.90
2022-12-19T05:22:43.325Z,99.90
2022-12-19T05:25:12.510Z,99.90
2022-12-19T05:27:40.528Z,99.90
2022-12-19T05:30:09.715Z,99.90
2022-12-19T05:32:37.497Z,99.90
2022-12-19T05:35:05.888Z,99.90
2022-12-19T05:37:36.129Z,99.90
2022-12-19T05:40:04.057Z,99.90
2022-12-19T05:42:33.207Z,99.90
2022-12-19T05:45:01.023Z,99.90
2022-12-19T05:47:28.873Z,99.90
2022-12-19T05:49:56.720Z,99.90
2022-12-19T05:52:25.218Z,99.90
2022-12-19T05:54:53.024Z,99.90
2022-12-19T05:57:20.814Z,99.90
2022-12-19T05:59:49.963Z,99.90
2022-12-19T06:02:17.865Z,99.90
2022-12-19T06:04:45.798Z,99.90
2022-12-19T06:07:19.244Z,99.90
2022-12-19T06:09:48.647Z,99.90
2022-12-19T06:12:16.469Z,99.90
2022-12-19T06:14:44.291Z,99.90
2022-12-19T06:17:13.502Z,99.90
2022-12-19T06:19:41.294Z,99.90
2022-12-19T06:22:09.178Z,99.90
2022-12-19T06:24:37.030Z,99.90
2022-12-19T06:27:04.936Z,99.90
2022-12-19T06:29:32.753Z,99.90
2022-12-19T06:32:00.606Z,99.90
2022-12-19T06:35:02.155Z,99.90
2022-12-19T06:37:17.602Z,99.90
2022-12-19T06:39:45.409Z,99.90
2022-12-19T06:42:29.855Z,99.90
2022-12-19T06:44:57.688Z,99.90
2022-12-19T06:47:25.861Z,99.90
2022-12-19T06:49:55.004Z,99.90
2022-12-19T06:52:22.801Z,99.90
2022-12-19T06:54:50.646Z,99.90
2022-12-19T06:57:18.502Z,99.90
2022-12-19T06:59:46.300Z,99.90
2022-12-19T07:02:25.701Z,99.90
2022-12-19T07:05:00.655Z,99.90
2022-12-19T07:07:29.494Z,99.90
2022-12-19T07:09:57.325Z,99.90
2022-12-19T07:12:25.218Z,99.90
2022-12-19T07:14:53.683Z,99.90
2022-12-19T07:17:23.375Z,99.90
2022-12-19T07:19:51.575Z,99.90
2022-12-19T07:22:21.095Z,99.90
2022-12-19T07:24:49.244Z,99.90
2022-12-19T07:27:17.105Z,99.90
2022-12-19T07:29:44.922Z,99.90
2022-12-19T07:32:12.696Z,99.90
2022-12-19T07:34:40.615Z,99.90
2022-12-19T07:37:08.432Z,99.90
2022-12-19T07:39:37.607Z,99.90
2022-12-19T07:42:05.747Z,99.90
2022-12-19T07:44:33.639Z,99.90
2022-12-19T07:47:01.483Z,99.90
2022-12-19T07:49:29.375Z,99.80
2022-12-19T07:51:57.185Z,99.10
2022-12-19T07:54:25.026Z,98.80
2022-12-19T07:56:54.156Z,99.20
2022-12-19T07:59:27.329Z,99.90
2022-12-19T08:01:57.671Z,99.90
2022-12-19T08:04:25.989Z,99.90
2022-12-19T08:06:53.760Z,99.90
2022-12-19T08:09:21.542Z,99.70
2022-12-19T08:11:49.433Z,99.20
2022-12-19T08:14:18.680Z,99.70
2022-12-19T08:17:18.910Z,99.90
2022-12-19T08:19:34.327Z,99.40
2022-12-19T08:22:02.107Z,98.70
2022-12-19T08:24:30.903Z,99.60
2022-12-19T08:26:58.924Z,97.30
2022-12-19T08:29:28.097Z,96.60
2022-12-19T08:31:55.878Z,96.30
2022-12-19T08:34:23.762Z,93.90
2022-12-19T08:36:51.574Z,92.10
2022-12-19T08:39:19.407Z,91.50
2022-12-19T08:41:47.212Z,91.00
2022-12-19T08:44:15.374Z,90.70
2022-12-19T08:46:49.954Z,90.40
2022-12-19T08:49:18.805Z,90.80
2022-12-19T08:51:46.764Z,91.10
2022-12-19T08:54:14.660Z,89.20
2022-12-19T08:56:46.471Z,91.40
2022-12-19T08:59:18.716Z,90.00
2022-12-19T09:02:00.537Z,88.90
2022-12-19T09:05:52.854Z,88.90
2022-12-19T09:07:16.848Z,88.10
2022-12-19T09:09:44.771Z,89.30
2022-12-19T09:12:13.832Z,88.00
2022-12-19T09:14:41.726Z,87.40
2022-12-19T09:17:11.154Z,89.00
2022-12-19T09:19:39.127Z,86.30
2022-12-19T09:22:09.038Z,88.00
2022-12-19T09:24:36.881Z,87.50
2022-12-19T09:27:04.870Z,85.30
2022-12-19T09:29:35.500Z,85.40
2022-12-19T09:32:03.735Z,83.90
2022-12-19T09:34:37.059Z,83.80
2022-12-19T09:37:07.948Z,81.70
2022-12-19T09:39:36.963Z,82.30
2022-12-19T09:42:26.365Z,80.50
2022-12-19T09:45:11.230Z,79.70
2022-12-19T09:47:45.496Z,78.60
2022-12-19T09:50:30.331Z,77.10
2022-12-19T09:53:03.494Z,76.20
2022-12-19T09:55:35.688Z,75.10
2022-12-19T09:58:08.405Z,74.90
2022-12-19T10:00:40.551Z,74.60
2022-12-19T10:03:17.455Z,73.90
2022-12-19T10:07:00.724Z,75.50
2022-12-19T10:08:54.970Z,76.20
2022-12-19T10:12:44.448Z,77.60
2022-12-19T10:14:55.789Z,78.30
2022-12-19T10:17:34.640Z,78.50
2022-12-19T10:20:20.373Z,79.30
2022-12-19T10:23:02.599Z,76.20
2022-12-19T10:25:41.278Z,77.20
2022-12-19T10:28:20.126Z,76.60
2022-12-19T10:31:14.080Z,77.30
2022-12-19T10:33:51.699Z,76.30
2022-12-19T10:36:19.493Z,77.90
2022-12-19T10:38:58.159Z,80.00
2022-12-19T10:41:29.278Z,81.70
2022-12-19T10:44:03.191Z,82.70
2022-12-19T10:46:39.283Z,82.50
2022-12-19T10:49:15.090Z,81.30
2022-12-19T10:51:43.865Z,80.90
2022-12-19T10:54:13.070Z,78.70
2022-12-19T10:56:40.839Z,78.10
2022-12-19T10:59:17.766Z,78.20
2022-12-19T11:01:46.019Z,77.70
2022-12-19T11:04:30.589Z,77.40
2022-12-19T11:07:18.600Z,76.80
2022-12-19T11:10:05.348Z,75.20
2022-12-19T11:14:31.479Z,75.40
2022-12-19T11:19:27.903Z,74.60
2022-12-19T11:27:32.153Z,75.30
2022-12-19T11:29:36.670Z,75.80
2022-12-19T11:29:38.395Z,76.20
2022-12-19T11:30:38.987Z,76.70
2022-12-19T11:32:45.397Z,74.10
2022-12-19T11:35:24.342Z,73.90
2022-12-19T11:37:56.454Z,74.30
2022-12-19T11:40:33.781Z,75.80
2022-12-19T11:43:43.044Z,75.20
2022-12-19T11:46:01.829Z,77.90
2022-12-19T11:48:37.438Z,76.50
2022-12-19T11:51:13.769Z,77.40
2022-12-19T11:53:51.966Z,77.40
2022-12-19T11:56:24.629Z,78.40
2022-12-19T11:58:56.773Z,77.10
2022-12-19T12:01:42.665Z,75.60
2022-12-19T12:04:39.316Z,75.90
2022-12-19T12:07:18.547Z,78.40
2022-12-19T12:14:10.385Z,77.40
2022-12-19T12:19:03.412Z,77.40
2022-12-19T12:31:01.643Z,75.90
2022-12-19T12:31:04.572Z,76.10
2022-12-19T12:31:40.921Z,76.40
2022-12-19T12:31:41.611Z,74.60
2022-12-19T12:31:52.224Z,74.50
2022-12-19T12:32:05.262Z,75.10
2022-12-19T12:35:40.505Z,74.20
2022-12-19T12:39:40.819Z,75.10
2022-12-19T12:42:23.037Z,76.60
2022-12-19T12:44:55.217Z,78.60
2022-12-19T12:47:25.582Z,79.20
2022-12-19T12:49:56.983Z,78.30
2022-12-19T12:52:32.400Z,77.00
2022-12-19T12:55:00.427Z,75.60
2022-12-19T12:57:36.682Z,74.90
2022-12-19T13:00:24.194Z,75.50
2022-12-19T13:02:56.133Z,76.50
2022-12-19T13:05:37.749Z,76.60
2022-12-19T13:08:37.374Z,78.00
2022-12-19T13:11:07.847Z,79.40
2022-12-19T13:13:54.238Z,81.00
2022-12-19T13:16:52.841Z,80.10
2022-12-19T13:19:27.903Z,82.40
2022-12-19T13:22:21.663Z,81.30
2022-12-19T13:24:51.218Z,80.90
2022-12-19T13:27:38.504Z,80.40
2022-12-19T13:30:16.620Z,79.70
2022-12-19T13:33:10.504Z,81.50
2022-12-19T13:37:06.421Z,81.90
2022-12-19T13:40:00.232Z,82.50
2022-12-19T13:41:48.413Z,84.30
2022-12-19T13:44:20.203Z,83.40
2022-12-19T13:46:48.153Z,85.20
2022-12-19T13:49:20.400Z,85.10
2022-12-19T13:51:50.669Z,85.70
2022-12-19T13:54:25.438Z,84.00
2022-12-19T13:56:54.249Z,84.90
2022-12-19T13:59:24.128Z,85.50
2022-12-19T14:01:54.214Z,87.10
2022-12-19T14:04:30.217Z,88.20
2022-12-19T14:07:02.145Z,88.80
2022-12-19T14:11:31.658Z,87.00
2022-12-19T14:13:50.432Z,87.60
2022-12-19T14:15:34.342Z,89.50
2022-12-19T14:18:41.632Z,87.80
2022-12-19T14:22:10.399Z,87.10
2022-12-19T14:24:10.068Z,89.20
2022-12-19T14:28:27.103Z,87.50
2022-12-19T14:29:45.390Z,89.40
2022-12-19T14:33:45.852Z,90.20
2022-12-19T14:36:12.036Z,90.90
2022-12-19T14:39:20.085Z,91.40
2022-12-19T14:41:07.960Z,92.80
2022-12-19T14:43:56.433Z,93.70
2022-12-19T14:54:04.575Z,93.80
2022-12-19T14:54:05.135Z,93.70
2022-12-19T14:54:26.484Z,92.70
2022-12-19T14:56:04.658Z,93.50
2022-12-19T14:58:53.443Z,94.20
2022-12-19T15:01:25.088Z,95.70
2022-12-19T15:04:53.255Z,96.20
2022-12-19T15:07:09.010Z,96.20
2022-12-19T15:11:05.182Z,98.40
2022-12-19T15:14:50.493Z,99.90
2022-12-19T15:15:45.625Z,99.90
2022-12-19T15:18:26.949Z,99.90
2022-12-19T15:20:56.793Z,99.90
2022-12-19T15:23:25.732Z,99.90
2022-12-19T15:26:03.800Z,99.90
2022-12-19T15:28:39.423Z,99.90
2022-12-19T15:31:14.884Z,99.90
2022-12-19T15:34:14.485Z,99.90
2022-12-19T15:36:31.883Z,99.90
2022-12-19T15:39:00.131Z,99.90
2022-12-19T15:41:28.469Z,99.90
2022-12-19T15:44:05.028Z,99.90
2022-12-19T15:46:33.994Z,99.90
2022-12-19T15:49:03.284Z,99.90
2022-12-19T15:51:31.168Z,99.90
2022-12-19T15:54:15.644Z,99.90
2022-12-19T15:56:50.090Z,99.90
2022-12-19T15:59:29.779Z,99.90
2022-12-19T16:02:04.108Z,99.90
2022-12-19T16:04:34.891Z,99.90
2022-12-19T16:07:11.302Z,99.90
2022-12-19T16:09:39.181Z,99.90
2022-12-19T16:12:07.161Z,99.90
2022-12-19T16:14:35.031Z,99.90
2022-12-19T16:17:02.955Z,99.90
2022-12-19T16:19:33.283Z,99.90
2022-12-19T16:22:01.269Z,99.90
2022-12-19T16:24:29.078Z,99.90
2022-12-19T16:27:00.348Z,99.90
2022-12-19T16:29:31.231Z,99.90
2022-12-19T16:32:00.822Z,99.90
2022-12-19T16:34:29.592Z,99.90
2022-12-19T16:36:58.747Z,99.90
2022-12-19T16:39:26.573Z,99.90
2022-12-19T16:41:54.375Z,99.90
2022-12-19T16:44:23.725Z,99.90
2022-12-19T16:46:52.390Z,99.90
2022-12-19T16:49:22.923Z,99.90
2022-12-19T16:51:51.271Z,99.90
2022-12-19T16:54:20.989Z,99.90
2022-12-19T16:56:51.199Z,99.90
2022-12-19T16:59:22.142Z,99.90
2022-12-19T17:01:51.001Z,99.90
2022-12-19T17:04:22.466Z,99.90
2022-12-19T17:06:51.185Z,99.90
2022-12-19T17:09:23.260Z,99.90
2022-12-19T17:11:54.345Z,99.90
2022-12-19T17:14:24.003Z,99.90
2022-12-19T17:16:55.047Z,99.90
2022-12-19T17:19:27.051Z,99.90
2022-12-19T17:21:54.975Z,99.90
2022-12-19T17:24:24.425Z,99.90
2022-12-19T17:26:52.228Z,99.90
2022-12-19T17:29:20.655Z,99.90
2022-12-19T17:31:49.104Z,99.90
2022-12-19T17:34:20.480Z,99.90
2022-12-19T17:36:48.525Z,99.90
2022-12-19T17:39:20.623Z,99.90
2022-12-19T17:41:50.654Z,99.90
2022-12-19T17:44:19.387Z,99.90
2022-12-19T17:46:48.574Z,99.90
2022-12-19T17:49:19.087Z,99.90
2022-12-19T17:51:52.097Z,99.90
2022-12-19T17:54:20.340Z,96.90
2022-12-19T17:56:49.737Z,95.80
2022-12-19T17:59:17.882Z,94.50
2022-12-19T18:01:47.300Z,94.90
2022-12-19T18:04:17.424Z,95.10
2022-12-19T18:06:45.318Z,96.20
2022-12-19T18:09:19.621Z,95.10
2022-12-19T18:11:49.397Z,95.50
2022-12-19T18:14:18.120Z,94.90
2022-12-19T18:16:47.147Z,95.30
2022-12-19T18:19:20.821Z,96.10
2022-12-19T18:21:49.165Z,97.70
2022-12-19T18:24:17.686Z,98.80
2022-12-19T18:26:45.672Z,99.90
2022-12-19T18:29:15.512Z,99.90
2022-12-19T18:31:50.461Z,99.90
2022-12-19T18:34:21.526Z,99.90
2022-12-19T18:36:49.570Z,99.90
2022-12-19T18:39:21.643Z,99.90
2022-12-19T18:41:50.047Z,99.90
2022-12-19T18:44:19.503Z,99.90
2022-12-19T18:46:49.637Z,99.90
2022-12-19T18:49:18.553Z,99.90
2022-12-19T18:51:46.416Z,99.90
2022-12-19T18:54:15.189Z,99.90
2022-12-19T18:56:43.038Z,99.90
2022-12-19T18:59:11.136Z,99.90
2022-12-19T19:01:42.932Z,99.90
2022-12-19T19:04:13.069Z,99.90
2022-12-19T19:06:48.586Z,99.90
2022-12-19T19:09:19.548Z,99.90
2022-12-19T19:11:47.379Z,99.90
2022-12-19T19:14:15.499Z,99.90
2022-12-19T19:16:44.763Z,99.90
2022-12-19T19:19:17.712Z,99.90
2022-12-19T19:21:45.746Z,99.90
2022-12-19T19:24:16.662Z,99.90
2022-12-19T19:26:44.533Z,99.90
2022-12-19T19:29:13.590Z,99.90
2022-12-19T19:31:46.671Z,99.90
2022-12-19T19:34:20.763Z,99.90
2022-12-19T19:36:53.426Z,99.90
2022-12-19T19:39:22.772Z,99.90
2022-12-19T19:41:50.939Z,99.90
2022-12-19T19:44:18.855Z,99.90
2022-12-19T19:46:48.652Z,99.90
2022-12-19T19:49:16.742Z,99.90
2022-12-19T19:51:44.734Z,99.90
2022-12-19T19:54:12.745Z,99.90
2022-12-19T19:56:40.577Z,99.90
2022-12-19T19:59:08.633Z,99.90
2022-12-19T20:01:36.756Z,99.90
2022-12-19T20:04:06.114Z,99.90
2022-12-19T20:06:34.021Z,99.90
2022-12-19T20:09:01.971Z,99.90
2022-12-19T20:11:30.497Z,99.90
2022-12-19T20:13:58.384Z,99.90
2022-12-19T20:16:26.391Z,99.90
2022-12-19T20:18:54.423Z,99.90
2022-12-19T20:21:24.675Z,99.90
2022-12-19T20:23:52.880Z,99.90
2022-12-19T20:26:20.793Z,99.90
2022-12-19T20:28:51.137Z,99.90
2022-12-19T20:31:20.394Z,99.90
2022-12-19T20:33:48.975Z,99.90
2022-12-19T20:36:17.318Z,99.90
2022-12-19T20:38:47.390Z,99.90
2022-12-19T20:41:15.481Z,99.90
2022-12-19T20:43:43.669Z,99.90
2022-12-19T20:46:13.744Z,99.90
2022-12-19T20:48:42.064Z,99.90
2022-12-19T20:51:10.917Z,99.90
2022-12-19T20:53:41.473Z,99.90
2022-12-19T20:56:14.967Z,99.90
2022-12-19T20:58:42.950Z,99.90
2022-12-19T21:01:13.612Z,99.90
2022-12-19T21:03:42.207Z,99.90
2022-12-19T21:06:12.234Z,99.90
2022-12-19T21:08:40.144Z,99.90
2022-12-19T21:11:10.296Z,99.90
2022-12-19T21:13:39.019Z,99.90
2022-12-19T21:16:09.890Z,99.90
2022-12-19T21:18:39.005Z,99.90
2022-12-19T21:21:08.990Z,99.90
2022-12-19T21:23:36.785Z,99.90
2022-12-19T21:26:06.079Z,99.90
2022-12-19T21:28:35.634Z,99.90
2022-12-19T21:31:05.361Z,99.90
2022-12-19T21:33:33.659Z,99.90
2022-12-19T21:36:07.889Z,99.90
2022-12-19T21:38:36.142Z,99.90
2022-12-19T21:41:05.183Z,99.90
2022-12-19T21:43:33.441Z,99.90
2022-12-19T21:46:11.174Z,99.90
2022-12-19T21:48:40.407Z,99.90
2022-12-19T21:51:09.432Z,99.90
2022-12-19T21:53:39.053Z,99.90
2022-12-19T21:56:09.026Z,99.90
2022-12-19T21:58:36.927Z,99.90
2022-12-19T22:01:08.263Z,99.90
2022-12-19T22:03:38.006Z,99.90
2022-12-19T22:06:08.647Z,99.90
2022-12-19T22:08:36.642Z,99.90
2022-12-19T22:11:04.518Z,99.90
2022-12-19T22:13:32.315Z,99.90
2022-12-19T22:16:03.105Z,99.90
2022-12-19T22:18:31.004Z,99.90
2022-12-19T22:21:00.218Z,99.90
2022-12-19T22:23:28.236Z,99.90
2022-12-19T22:26:07.427Z,99.90
2022-12-19T22:28:37.188Z,99.90
2022-12-19T22:31:15.133Z,99.90
2022-12-19T22:33:43.062Z,99.90
2022-12-19T22:36:15.406Z,99.90
2022-12-19T22:38:45.993Z,99.90
2022-12-19T22:41:15.737Z,99.90
2022-12-19T22:43:44.672Z,99.90
2022-12-19T22:46:13.632Z,99.90
2022-12-19T22:48:41.944Z,99.90
2022-12-19T22:51:10.242Z,99.90
2022-12-19T22:53:40.453Z,99.90
2022-12-19T22:56:11.722Z,99.90
2022-12-19T22:58:41.304Z,99.90
2022-12-19T23:01:14.226Z,99.90
2022-12-19T23:03:42.305Z,99.90
2022-12-19T23:06:10.746Z,99.90
2022-12-19T23:08:40.593Z,99.90
2022-12-19T23:11:10.852Z,99.90
2022-12-19T23:13:39.150Z,99.90
2022-12-19T23:16:07.764Z,99.90
2022-12-19T23:18:35.817Z,99.90
2022-12-19T23:21:09.337Z,99.90
2022-12-19T23:23:39.894Z,99.90
2022-12-19T23:26:13.424Z,99.90
2022-12-19T23:28:43.500Z,99.90
2022-12-19T23:31:14.260Z,99.90
2022-12-19T23:33:42.211Z,99.90
2022-12-19T23:36:10.811Z,99.90
2022-12-19T23:38:40.602Z,99.90
2022-12-19T23:41:11.895Z,99.90
2022-12-19T23:43:40.469Z,99.90
2022-12-19T23:46:09.624Z,99.90
2022-12-19T23:48:37.703Z,99.90
2022-12-19T23:51:07.240Z,99.90
2022-12-19T23:53:35.699Z,99.90
2022-12-19T23:56:11.172Z,99.90
2022-12-19T23:58:39.091Z,99.90
